Duke Field,(Eglin Af Aux Nr 3) Airport
KEGI : now visible

Airfield :











YOU CAN JOIN US ON...

 
LOGIN :

Register | Disclaimer

   EN    FR    IT 

 









Legend :    VFR   Marginal VFR   IFR   Intensive IFR   Very Intensive IFR
Visi :
Ceiling :
>= 8 km
>= 3000ft
5 to 8 km
1000 to 3000 ft
1500m to 5 km
500 to 1000 ft
800 to 1500m
200 to 500 ft
< 800m
< 200 ft
Symbols :   Thunderstorms  Fog  Heavy snow  Heavy precipitations  Wind > 20 kt






- Airport Elevation : 191 ft


KEGI - Duke Field,(Eglin Af Aux Nr 3)

CURRENT METAR :
  • 181158Z AUTO 17003KT 1/8SM R18/0500V0700FT FG VV001 23/23 A3003 RMK AO2 SLP168 $

EXPIRED METARs :
  • 181148Z AUTO 17003KT M1/8SM R18/0500V0700FT FG VV002 23/22 A3002 RMK AO2 SLP165 $
  • 181126Z AUTO 00000KT 1/4SM R18/1200V2000FT FG VV001 22/22 A3002 RMK AO2 SLP165 $
  • 181056Z AUTO 00000KT 1/4SM R18/1200V1600FT FG VV000 22/22 A3000 RMK AO2 SLP158 T02200215 $
  • 181023Z AUTO 00000KT 1/4SM R18/1200V1600FT FG VV000 22/22 A3000 RMK AO2 SLP158 $
  • 181015Z AUTO 00000KT 3/8SM R18/1600V2400FT FG VV000 22/22 A3000 RMK AO2 SLP158 $
  • 181006Z AUTO 00000KT 3/4SM R18/2400V3500FT BR BKN001 22/22 A2999 RMK AO2 VIS 3/4V1 1/4 SLP154 $
  • 180956Z AUTO 00000KT 1 3/8SM R18/4500FT BR BKN001 23/22 A2999 RMK AO2 VIS 1 3/8V2 1/4 SLP154 T02250220 $

TAF AMD TAF KEGI
Valid from the 18 at 12:00 until the 19 at 15:00 UTC


181200Z 1812/1915 18006KT 1600 BR BKN002 OVC010 QNH3001INS
TEMPO 1812/1813 0400 FG VV002
BECMG 1813/1814 19009KT 9999 NSW FEW015 QNH3004INS
BECMG 1903/1904 21009KT 8000 BR SKC QNH2997INS WND 26006 AFTKT 1907
TEMPO 1907/1911 1600 BR BKN002
BECMG 1913/1914 26009KT 9999 NSW FEW030 QNH2994INS TX32/1820Z TN23/1812Z
KZJX FIR / North America



MET'MAP, your aeronautical weather chart ! - Copyright ORBIFLY December 2007 - Disclaimer

ORBIFLY MET'MAP TEAM :

Programming & Development : Alexandra Zaïnal
Original concept : Baudouin d'Aumeries
Technical & hardware support : Manuel Goepfert
Assistance : Marc-Olivier Méhu

Contact : metmap@orbifly.com




SOURCES & CREDITS :

   NOAA       Earth
Advisory